sensor_id;sensor_type;location;lat;lon;timestamp;temperature;humidity
68804;SHT31;55787;52.678;13.314;2023-05-25T00:01:38;10.14;85.22
68804;SHT31;55787;52.678;13.314;2023-05-25T00:04:09;10.21;85.54
68804;SHT31;55787;52.678;13.314;2023-05-25T00:06:36;10.21;85.52
68804;SHT31;55787;52.678;13.314;2023-05-25T00:09:06;10.25;85.38
68804;SHT31;55787;52.678;13.314;2023-05-25T00:11:33;10.22;85.29
68804;SHT31;55787;52.678;13.314;2023-05-25T00:14:00;10.28;85.14
68804;SHT31;55787;52.678;13.314;2023-05-25T00:16:26;10.27;84.75
68804;SHT31;55787;52.678;13.314;2023-05-25T00:18:54;10.30;84.37
68804;SHT31;55787;52.678;13.314;2023-05-25T00:21:23;10.30;84.99
68804;SHT31;55787;52.678;13.314;2023-05-25T00:23:51;10.27;85.15
68804;SHT31;55787;52.678;13.314;2023-05-25T00:26:17;10.22;85.44
68804;SHT31;55787;52.678;13.314;2023-05-25T00:28:44;10.22;84.67
68804;SHT31;55787;52.678;13.314;2023-05-25T00:31:11;10.20;84.45
68804;SHT31;55787;52.678;13.314;2023-05-25T00:33:38;10.20;84.70
68804;SHT31;55787;52.678;13.314;2023-05-25T00:36:05;10.17;84.72
68804;SHT31;55787;52.678;13.314;2023-05-25T00:38:32;10.14;84.85
68804;SHT31;55787;52.678;13.314;2023-05-25T00:40:58;10.08;84.90
68804;SHT31;55787;52.678;13.314;2023-05-25T00:43:25;9.97;85.50
68804;SHT31;55787;52.678;13.314;2023-05-25T00:45:52;9.84;86.00
68804;SHT31;55787;52.678;13.314;2023-05-25T00:48:19;9.76;85.90
68804;SHT31;55787;52.678;13.314;2023-05-25T00:50:46;9.66;86.46
68804;SHT31;55787;52.678;13.314;2023-05-25T00:53:13;9.62;86.82
68804;SHT31;55787;52.678;13.314;2023-05-25T00:55:44;9.55;86.91
68804;SHT31;55787;52.678;13.314;2023-05-25T00:58:16;9.47;87.31
68804;SHT31;55787;52.678;13.314;2023-05-25T01:00:46;9.42;87.56
68804;SHT31;55787;52.678;13.314;2023-05-25T01:03:18;9.35;87.74
68804;SHT31;55787;52.678;13.314;2023-05-25T01:05:50;9.26;87.90
68804;SHT31;55787;52.678;13.314;2023-05-25T01:08:19;9.16;88.30
68804;SHT31;55787;52.678;13.314;2023-05-25T01:10:48;9.11;88.71
68804;SHT31;55787;52.678;13.314;2023-05-25T01:13:16;9.04;88.84
68804;SHT31;55787;52.678;13.314;2023-05-25T01:15:44;8.98;89.27
68804;SHT31;55787;52.678;13.314;2023-05-25T01:18:13;8.89;89.33
68804;SHT31;55787;52.678;13.314;2023-05-25T01:22:07;8.88;89.66
68804;SHT31;55787;52.678;13.314;2023-05-25T01:26:45;8.74;89.93
68804;SHT31;55787;52.678;13.314;2023-05-25T01:29:13;8.63;90.19
68804;SHT31;55787;52.678;13.314;2023-05-25T01:31:41;8.61;90.45
68804;SHT31;55787;52.678;13.314;2023-05-25T01:34:08;8.57;90.37
68804;SHT31;55787;52.678;13.314;2023-05-25T01:36:36;8.50;90.67
68804;SHT31;55787;52.678;13.314;2023-05-25T01:39:04;8.46;90.80
68804;SHT31;55787;52.678;13.314;2023-05-25T01:41:31;8.40;91.10
68804;SHT31;55787;52.678;13.314;2023-05-25T01:43:58;8.40;91.10
68804;SHT31;55787;52.678;13.314;2023-05-25T01:46:35;8.36;91.36
68804;SHT31;55787;52.678;13.314;2023-05-25T01:52:29;8.26;91.41
68804;SHT31;55787;52.678;13.314;2023-05-25T01:55:16;8.22;91.77
68804;SHT31;55787;52.678;13.314;2023-05-25T01:57:49;8.19;91.87
68804;SHT31;55787;52.678;13.314;2023-05-25T02:00:17;8.17;92.09
68804;SHT31;55787;52.678;13.314;2023-05-25T02:02:47;8.17;92.36
68804;SHT31;55787;52.678;13.314;2023-05-25T02:05:15;8.13;92.28
68804;SHT31;55787;52.678;13.314;2023-05-25T02:07:43;8.10;92.34
68804;SHT31;55787;52.678;13.314;2023-05-25T02:10:10;8.06;92.51
68804;SHT31;55787;52.678;13.314;2023-05-25T02:12:37;8.06;92.66
68804;SHT31;55787;52.678;13.314;2023-05-25T02:15:04;8.03;92.43
68804;SHT31;55787;52.678;13.314;2023-05-25T02:17:31;7.99;92.38
68804;SHT31;55787;52.678;13.314;2023-05-25T02:20:02;7.88;92.62
68804;SHT31;55787;52.678;13.314;2023-05-25T02:22:30;7.84;92.99
68804;SHT31;55787;52.678;13.314;2023-05-25T02:24:58;7.84;93.27
68804;SHT31;55787;52.678;13.314;2023-05-25T02:27:25;7.79;93.46
68804;SHT31;55787;52.678;13.314;2023-05-25T02:29:52;7.75;93.39
68804;SHT31;55787;52.678;13.314;2023-05-25T02:32:19;7.70;93.51
68804;SHT31;55787;52.678;13.314;2023-05-25T02:34:46;7.65;93.59
68804;SHT31;55787;52.678;13.314;2023-05-25T02:37:13;7.61;93.65
68804;SHT31;55787;52.678;13.314;2023-05-25T02:39:40;7.60;93.91
68804;SHT31;55787;52.678;13.314;2023-05-25T02:42:06;7.53;94.02
68804;SHT31;55787;52.678;13.314;2023-05-25T02:44:34;7.54;93.96
68804;SHT31;55787;52.678;13.314;2023-05-25T02:47:00;7.50;93.71
68804;SHT31;55787;52.678;13.314;2023-05-25T02:49:27;7.47;93.80
68804;SHT31;55787;52.678;13.314;2023-05-25T02:51:55;7.47;93.89
68804;SHT31;55787;52.678;13.314;2023-05-25T02:54:22;7.40;93.99
68804;SHT31;55787;52.678;13.314;2023-05-25T02:56:49;7.38;94.26
68804;SHT31;55787;52.678;13.314;2023-05-25T02:59:15;7.34;93.98
68804;SHT31;55787;52.678;13.314;2023-05-25T03:01:42;7.30;93.95
68804;SHT31;55787;52.678;13.314;2023-05-25T03:04:10;7.23;93.80
68804;SHT31;55787;52.678;13.314;2023-05-25T03:06:37;7.24;94.21
68804;SHT31;55787;52.678;13.314;2023-05-25T03:09:04;7.19;94.03
68804;SHT31;55787;52.678;13.314;2023-05-25T03:11:32;7.17;94.35
68804;SHT31;55787;52.678;13.314;2023-05-25T03:13:58;7.17;94.70
68804;SHT31;55787;52.678;13.314;2023-05-25T03:16:25;7.16;94.80
68804;SHT31;55787;52.678;13.314;2023-05-25T03:18:52;7.17;95.09
68804;SHT31;55787;52.678;13.314;2023-05-25T03:21:18;7.19;95.23
68804;SHT31;55787;52.678;13.314;2023-05-25T03:23:47;7.19;95.14
68804;SHT31;55787;52.678;13.314;2023-05-25T03:26:14;7.20;95.22
68804;SHT31;55787;52.678;13.314;2023-05-25T03:28:41;7.22;95.08
68804;SHT31;55787;52.678;13.314;2023-05-25T03:31:08;7.22;95.06
68804;SHT31;55787;52.678;13.314;2023-05-25T03:33:34;7.17;94.70
68804;SHT31;55787;52.678;13.314;2023-05-25T03:36:05;7.14;94.63
68804;SHT31;55787;52.678;13.314;2023-05-25T03:38:33;7.12;94.47
68804;SHT31;55787;52.678;13.314;2023-05-25T03:41:00;7.07;94.52
68804;SHT31;55787;52.678;13.314;2023-05-25T03:43:27;7.07;94.51
68804;SHT31;55787;52.678;13.314;2023-05-25T03:45:54;7.09;94.31
68804;SHT31;55787;52.678;13.314;2023-05-25T03:48:20;7.06;94.43
68804;SHT31;55787;52.678;13.314;2023-05-25T03:50:47;7.07;94.76
68804;SHT31;55787;52.678;13.314;2023-05-25T03:53:14;7.07;94.83
68804;SHT31;55787;52.678;13.314;2023-05-25T03:55:41;7.12;95.27
68804;SHT31;55787;52.678;13.314;2023-05-25T03:58:09;7.14;95.23
68804;SHT31;55787;52.678;13.314;2023-05-25T04:00:36;7.28;96.07
68804;SHT31;55787;52.678;13.314;2023-05-25T04:03:03;7.38;96.10
68804;SHT31;55787;52.678;13.314;2023-05-25T04:05:29;7.48;96.27
68804;SHT31;55787;52.678;13.314;2023-05-25T04:07:56;7.55;96.17
68804;SHT31;55787;52.678;13.314;2023-05-25T04:10:23;7.61;96.20
68804;SHT31;55787;52.678;13.314;2023-05-25T04:12:50;7.81;96.78
68804;SHT31;55787;52.678;13.314;2023-05-25T04:15:17;7.91;96.46
68804;SHT31;55787;52.678;13.314;2023-05-25T04:17:44;8.01;96.55
68804;SHT31;55787;52.678;13.314;2023-05-25T04:20:11;8.19;96.65
68804;SHT31;55787;52.678;13.314;2023-05-25T04:22:39;8.28;96.40
68804;SHT31;55787;52.678;13.314;2023-05-25T04:25:06;8.39;96.19
68804;SHT31;55787;52.678;13.314;2023-05-25T04:27:33;8.49;95.93
68804;SHT31;55787;52.678;13.314;2023-05-25T04:30:00;8.60;95.60
68804;SHT31;55787;52.678;13.314;2023-05-25T04:32:26;8.67;95.33
68804;SHT31;55787;52.678;13.314;2023-05-25T04:34:55;8.75;95.24
68804;SHT31;55787;52.678;13.314;2023-05-25T04:37:22;8.84;95.06
68804;SHT31;55787;52.678;13.314;2023-05-25T04:39:52;8.95;94.93
68804;SHT31;55787;52.678;13.314;2023-05-25T04:42:19;9.00;94.86
68804;SHT31;55787;52.678;13.314;2023-05-25T04:44:50;9.14;94.57
68804;SHT31;55787;52.678;13.314;2023-05-25T04:47:18;9.22;94.33
68804;SHT31;55787;52.678;13.314;2023-05-25T04:49:45;9.32;93.98
68804;SHT31;55787;52.678;13.314;2023-05-25T04:52:12;9.40;93.70
68804;SHT31;55787;52.678;13.314;2023-05-25T04:54:39;9.53;93.39
68804;SHT31;55787;52.678;13.314;2023-05-25T04:57:07;9.66;92.96
68804;SHT31;55787;52.678;13.314;2023-05-25T04:59:33;9.79;92.95
68804;SHT31;55787;52.678;13.314;2023-05-25T05:02:00;9.94;92.47
68804;SHT31;55787;52.678;13.314;2023-05-25T05:04:27;10.15;91.95
68804;SHT31;55787;52.678;13.314;2023-05-25T05:06:53;10.30;91.48
68804;SHT31;55787;52.678;13.314;2023-05-25T05:09:24;10.41;91.41
68804;SHT31;55787;52.678;13.314;2023-05-25T05:11:50;10.56;90.94
68804;SHT31;55787;52.678;13.314;2023-05-25T05:14:17;10.75;90.33
68804;SHT31;55787;52.678;13.314;2023-05-25T05:16:44;10.89;89.61
68804;SHT31;55787;52.678;13.314;2023-05-25T05:19:11;11.07;89.24
68804;SHT31;55787;52.678;13.314;2023-05-25T05:21:37;11.23;88.58
68804;SHT31;55787;52.678;13.314;2023-05-25T05:24:04;11.41;88.19
68804;SHT31;55787;52.678;13.314;2023-05-25T05:26:31;11.54;87.74
68804;SHT31;55787;52.678;13.314;2023-05-25T05:29:18;11.72;86.69
68804;SHT31;55787;52.678;13.314;2023-05-25T05:31:45;11.86;85.90
68804;SHT31;55787;52.678;13.314;2023-05-25T05:34:12;12.03;85.53
68804;SHT31;55787;52.678;13.314;2023-05-25T05:36:38;12.21;84.86
68804;SHT31;55787;52.678;13.314;2023-05-25T05:39:23;12.39;83.92
68804;SHT31;55787;52.678;13.314;2023-05-25T05:41:49;12.57;83.29
68804;SHT31;55787;52.678;13.314;2023-05-25T05:44:17;12.81;83.22
68804;SHT31;55787;52.678;13.314;2023-05-25T05:46:44;12.88;82.00
68804;SHT31;55787;52.678;13.314;2023-05-25T05:49:10;13.15;82.15
68804;SHT31;55787;52.678;13.314;2023-05-25T05:51:37;13.29;81.00
68804;SHT31;55787;52.678;13.314;2023-05-25T05:54:04;13.53;80.24
68804;SHT31;55787;52.678;13.314;2023-05-25T05:56:31;13.63;80.02
68804;SHT31;55787;52.678;13.314;2023-05-25T05:58:58;13.86;79.10
68804;SHT31;55787;52.678;13.314;2023-05-25T06:01:25;14.09;78.25
68804;SHT31;55787;52.678;13.314;2023-05-25T06:03:51;14.24;77.62
68804;SHT31;55787;52.678;13.314;2023-05-25T06:06:20;14.96;76.52
68804;SHT31;55787;52.678;13.314;2023-05-25T06:08:47;16.06;72.16
68804;SHT31;55787;52.678;13.314;2023-05-25T06:11:13;17.93;66.13
68804;SHT31;55787;52.678;13.314;2023-05-25T06:13:40;18.57;62.36
68804;SHT31;55787;52.678;13.314;2023-05-25T06:16:07;20.14;58.77
68804;SHT31;55787;52.678;13.314;2023-05-25T06:18:33;21.00;55.93
68804;SHT31;55787;52.678;13.314;2023-05-25T06:21:00;21.34;55.11
68804;SHT31;55787;52.678;13.314;2023-05-25T06:23:27;21.89;53.14
68804;SHT31;55787;52.678;13.314;2023-05-25T06:25:54;20.62;54.61
68804;SHT31;55787;52.678;13.314;2023-05-25T06:28:20;21.63;54.08
68804;SHT31;55787;52.678;13.314;2023-05-25T06:30:47;21.61;52.00
68804;SHT31;55787;52.678;13.314;2023-05-25T06:33:14;22.87;50.62
68804;SHT31;55787;52.678;13.314;2023-05-25T06:35:41;21.88;51.17
68804;SHT31;55787;52.678;13.314;2023-05-25T06:38:08;22.56;51.41
68804;SHT31;55787;52.678;13.314;2023-05-25T06:40:36;23.11;50.06
68804;SHT31;55787;52.678;13.314;2023-05-25T06:43:03;23.94;47.75
68804;SHT31;55787;52.678;13.314;2023-05-25T06:45:30;24.18;47.06
68804;SHT31;55787;52.678;13.314;2023-05-25T06:47:56;23.96;47.16
68804;SHT31;55787;52.678;13.314;2023-05-25T06:50:23;21.47;51.97
68804;SHT31;55787;52.678;13.314;2023-05-25T06:52:50;22.13;49.65
68804;SHT31;55787;52.678;13.314;2023-05-25T06:55:16;23.11;47.93
68804;SHT31;55787;52.678;13.314;2023-05-25T06:57:43;23.80;48.38
68804;SHT31;55787;52.678;13.314;2023-05-25T07:00:10;24.72;46.13
68804;SHT31;55787;52.678;13.314;2023-05-25T07:02:38;24.45;46.70
68804;SHT31;55787;52.678;13.314;2023-05-25T07:05:05;25.06;44.26
68804;SHT31;55787;52.678;13.314;2023-05-25T07:07:32;25.37;44.55
68804;SHT31;55787;52.678;13.314;2023-05-25T07:09:58;24.72;44.74
68804;SHT31;55787;52.678;13.314;2023-05-25T07:12:25;24.97;45.18
68804;SHT31;55787;52.678;13.314;2023-05-25T07:14:52;25.48;43.77
68804;SHT31;55787;52.678;13.314;2023-05-25T07:17:18;25.80;43.55
68804;SHT31;55787;52.678;13.314;2023-05-25T07:19:45;26.46;42.56
68804;SHT31;55787;52.678;13.314;2023-05-25T07:22:14;23.73;47.07
68804;SHT31;55787;52.678;13.314;2023-05-25T07:24:45;25.00;43.29
68804;SHT31;55787;52.678;13.314;2023-05-25T07:27:13;26.42;42.17
68804;SHT31;55787;52.678;13.314;2023-05-25T07:29:39;27.00;41.21
68804;SHT31;55787;52.678;13.314;2023-05-25T07:32:06;26.24;41.72
68804;SHT31;55787;52.678;13.314;2023-05-25T07:34:33;26.79;41.46
68804;SHT31;55787;52.678;13.314;2023-05-25T07:37:00;27.04;39.96
68804;SHT31;55787;52.678;13.314;2023-05-25T07:39:27;26.87;39.71
68804;SHT31;55787;52.678;13.314;2023-05-25T07:41:54;27.00;38.57
68804;SHT31;55787;52.678;13.314;2023-05-25T07:44:20;27.28;38.78
68804;SHT31;55787;52.678;13.314;2023-05-25T07:46:47;26.84;38.54
68804;SHT31;55787;52.678;13.314;2023-05-25T07:49:14;24.31;41.10
68804;SHT31;55787;52.678;13.314;2023-05-25T07:51:44;26.50;39.52
68804;SHT31;55787;52.678;13.314;2023-05-25T07:54:11;26.60;39.71
68804;SHT31;55787;52.678;13.314;2023-05-25T07:56:38;25.94;39.09
68804;SHT31;55787;52.678;13.314;2023-05-25T07:59:04;24.51;42.71
68804;SHT31;55787;52.678;13.314;2023-05-25T08:01:31;26.64;38.60
68804;SHT31;55787;52.678;13.314;2023-05-25T08:03:58;26.31;37.90
68804;SHT31;55787;52.678;13.314;2023-05-25T08:06:26;23.98;39.82
68804;SHT31;55787;52.678;13.314;2023-05-25T08:08:53;23.66;40.04
68804;SHT31;55787;52.678;13.314;2023-05-25T08:11:23;23.23;42.24
68804;SHT31;55787;52.678;13.314;2023-05-25T08:13:53;22.87;42.60
68804;SHT31;55787;52.678;13.314;2023-05-25T08:16:19;24.58;39.37
68804;SHT31;55787;52.678;13.314;2023-05-25T08:18:46;24.54;38.15
68804;SHT31;55787;52.678;13.314;2023-05-25T08:21:13;24.27;39.79
68804;SHT31;55787;52.678;13.314;2023-05-25T08:23:40;24.52;38.03
68804;SHT31;55787;52.678;13.314;2023-05-25T08:26:10;27.25;33.80
68804;SHT31;55787;52.678;13.314;2023-05-25T08:28:57;27.85;34.86
68804;SHT31;55787;52.678;13.314;2023-05-25T08:31:24;28.68;34.10
68804;SHT31;55787;52.678;13.314;2023-05-25T08:33:51;28.14;33.70
68804;SHT31;55787;52.678;13.314;2023-05-25T08:36:17;29.20;31.49
68804;SHT31;55787;52.678;13.314;2023-05-25T08:38:44;28.91;32.50
68804;SHT31;55787;52.678;13.314;2023-05-25T08:41:12;29.03;32.49
68804;SHT31;55787;52.678;13.314;2023-05-25T08:43:40;27.78;34.03
68804;SHT31;55787;52.678;13.314;2023-05-25T08:46:08;29.23;33.05
68804;SHT31;55787;52.678;13.314;2023-05-25T08:48:36;29.52;31.98
68804;SHT31;55787;52.678;13.314;2023-05-25T08:51:12;28.91;34.14
68804;SHT31;55787;52.678;13.314;2023-05-25T08:53:39;27.56;35.98
68804;SHT31;55787;52.678;13.314;2023-05-25T08:56:13;28.24;36.44
68804;SHT31;55787;52.678;13.314;2023-05-25T08:59:14;27.31;39.24
68804;SHT31;55787;52.678;13.314;2023-05-25T09:01:45;28.43;37.77
68804;SHT31;55787;52.678;13.314;2023-05-25T09:04:12;29.37;37.07
68804;SHT31;55787;52.678;13.314;2023-05-25T09:06:40;29.16;36.75
68804;SHT31;55787;52.678;13.314;2023-05-25T09:09:07;29.73;37.07
68804;SHT31;55787;52.678;13.314;2023-05-25T09:11:34;28.72;36.74
68804;SHT31;55787;52.678;13.314;2023-05-25T09:14:07;29.02;38.05
68804;SHT31;55787;52.678;13.314;2023-05-25T09:16:36;29.76;37.07
68804;SHT31;55787;52.678;13.314;2023-05-25T09:19:04;27.92;36.43
68804;SHT31;55787;52.678;13.314;2023-05-25T09:21:31;28.41;37.93
68804;SHT31;55787;52.678;13.314;2023-05-25T09:23:59;28.47;38.31
68804;SHT31;55787;52.678;13.314;2023-05-25T09:26:26;28.33;39.74
68804;SHT31;55787;52.678;13.314;2023-05-25T09:28:53;28.36;38.50
68804;SHT31;55787;52.678;13.314;2023-05-25T09:31:22;28.75;38.13
68804;SHT31;55787;52.678;13.314;2023-05-25T09:33:50;26.83;38.84
68804;SHT31;55787;52.678;13.314;2023-05-25T09:36:20;29.13;37.31
68804;SHT31;55787;52.678;13.314;2023-05-25T09:38:51;29.22;36.74
68804;SHT31;55787;52.678;13.314;2023-05-25T09:41:19;28.92;37.49
68804;SHT31;55787;52.678;13.314;2023-05-25T09:43:46;28.81;38.16
68804;SHT31;55787;52.678;13.314;2023-05-25T09:46:34;29.08;36.59
68804;SHT31;55787;52.678;13.314;2023-05-25T09:49:06;27.79;39.06
68804;SHT31;55787;52.678;13.314;2023-05-25T09:51:34;25.87;40.90
68804;SHT31;55787;52.678;13.314;2023-05-25T09:54:08;27.63;38.76
68804;SHT31;55787;52.678;13.314;2023-05-25T09:56:36;29.06;36.94
68804;SHT31;55787;52.678;13.314;2023-05-25T09:59:03;29.42;36.91
68804;SHT31;55787;52.678;13.314;2023-05-25T10:01:31;29.56;36.25
68804;SHT31;55787;52.678;13.314;2023-05-25T10:03:59;30.05;35.48
68804;SHT31;55787;52.678;13.314;2023-05-25T10:06:37;29.19;34.54
68804;SHT31;55787;52.678;13.314;2023-05-25T10:09:05;30.46;34.86
68804;SHT31;55787;52.678;13.314;2023-05-25T10:11:36;29.88;34.78
68804;SHT31;55787;52.678;13.314;2023-05-25T10:14:06;28.95;35.62
68804;SHT31;55787;52.678;13.314;2023-05-25T10:16:33;30.43;34.01
68804;SHT31;55787;52.678;13.314;2023-05-25T10:19:06;31.11;33.50
68804;SHT31;55787;52.678;13.314;2023-05-25T10:21:36;30.41;34.61
68804;SHT31;55787;52.678;13.314;2023-05-25T10:24:05;30.21;34.82
68804;SHT31;55787;52.678;13.314;2023-05-25T10:26:39;29.62;34.16
68804;SHT31;55787;52.678;13.314;2023-05-25T10:29:07;29.47;34.71
68804;SHT31;55787;52.678;13.314;2023-05-25T10:31:36;30.18;35.06
68804;SHT31;55787;52.678;13.314;2023-05-25T10:34:03;29.96;34.07
68804;SHT31;55787;52.678;13.314;2023-05-25T10:36:32;25.22;38.31
68804;SHT31;55787;52.678;13.314;2023-05-25T10:39:00;24.79;37.08
68804;SHT31;55787;52.678;13.314;2023-05-25T10:41:28;28.39;34.21
68804;SHT31;55787;52.678;13.314;2023-05-25T10:43:55;29.22;34.41
68804;SHT31;55787;52.678;13.314;2023-05-25T10:46:22;28.69;33.75
68804;SHT31;55787;52.678;13.314;2023-05-25T10:48:49;29.69;34.19
68804;SHT31;55787;52.678;13.314;2023-05-25T10:51:20;29.33;33.87
68804;SHT31;55787;52.678;13.314;2023-05-25T10:53:59;29.90;33.36
68804;SHT31;55787;52.678;13.314;2023-05-25T10:56:26;29.67;32.81
68804;SHT31;55787;52.678;13.314;2023-05-25T10:58:53;29.12;33.11
68804;SHT31;55787;52.678;13.314;2023-05-25T11:01:20;30.22;34.30
68804;SHT31;55787;52.678;13.314;2023-05-25T11:09:29;29.52;34.85
68804;SHT31;55787;52.678;13.314;2023-05-25T11:12:00;29.30;35.60
68804;SHT31;55787;52.678;13.314;2023-05-25T11:14:30;29.74;33.56
68804;SHT31;55787;52.678;13.314;2023-05-25T11:19:47;29.83;34.97
68804;SHT31;55787;52.678;13.314;2023-05-25T11:24:50;28.47;36.56
68804;SHT31;55787;52.678;13.314;2023-05-25T11:27:26;29.19;36.34
68804;SHT31;55787;52.678;13.314;2023-05-25T11:29:54;28.71;36.77
68804;SHT31;55787;52.678;13.314;2023-05-25T11:32:25;28.88;37.18
68804;SHT31;55787;52.678;13.314;2023-05-25T11:34:52;28.30;36.36
68804;SHT31;55787;52.678;13.314;2023-05-25T11:37:21;28.75;36.36
68804;SHT31;55787;52.678;13.314;2023-05-25T11:39:49;28.60;37.24
68804;SHT31;55787;52.678;13.314;2023-05-25T11:42:22;26.33;39.20
68804;SHT31;55787;52.678;13.314;2023-05-25T11:44:49;28.82;37.71
68804;SHT31;55787;52.678;13.314;2023-05-25T11:47:19;28.51;36.88
68804;SHT31;55787;52.678;13.314;2023-05-25T11:49:48;28.28;37.70
68804;SHT31;55787;52.678;13.314;2023-05-25T11:52:17;28.57;37.55
68804;SHT31;55787;52.678;13.314;2023-05-25T11:54:45;28.68;36.59
68804;SHT31;55787;52.678;13.314;2023-05-25T11:57:16;29.29;35.70
68804;SHT31;55787;52.678;13.314;2023-05-25T11:59:53;28.67;36.34
68804;SHT31;55787;52.678;13.314;2023-05-25T12:02:21;27.96;36.97
68804;SHT31;55787;52.678;13.314;2023-05-25T12:07:23;28.03;37.44
68804;SHT31;55787;52.678;13.314;2023-05-25T12:09:51;28.18;38.02
68804;SHT31;55787;52.678;13.314;2023-05-25T12:12:18;28.87;35.51
68804;SHT31;55787;52.678;13.314;2023-05-25T12:14:48;28.76;34.79
68804;SHT31;55787;52.678;13.314;2023-05-25T12:17:17;27.49;37.62
68804;SHT31;55787;52.678;13.314;2023-05-25T12:19:44;28.63;37.60
68804;SHT31;55787;52.678;13.314;2023-05-25T12:22:11;28.75;38.40
68804;SHT31;55787;52.678;13.314;2023-05-25T12:24:39;28.98;37.80
68804;SHT31;55787;52.678;13.314;2023-05-25T12:27:16;28.88;36.32
68804;SHT31;55787;52.678;13.314;2023-05-25T12:29:46;28.85;37.22
68804;SHT31;55787;52.678;13.314;2023-05-25T12:32:14;28.72;36.96
68804;SHT31;55787;52.678;13.314;2023-05-25T12:34:40;28.78;37.68
68804;SHT31;55787;52.678;13.314;2023-05-25T12:37:18;27.38;40.36
68804;SHT31;55787;52.678;13.314;2023-05-25T12:39:49;28.09;38.36
68804;SHT31;55787;52.678;13.314;2023-05-25T12:42:16;25.38;43.34
68804;SHT31;55787;52.678;13.314;2023-05-25T12:44:44;26.42;41.75
68804;SHT31;55787;52.678;13.314;2023-05-25T12:49:41;25.88;42.01
68804;SHT31;55787;52.678;13.314;2023-05-25T12:52:09;22.99;47.71
68804;SHT31;55787;52.678;13.314;2023-05-25T12:54:43;23.63;46.64
68804;SHT31;55787;52.678;13.314;2023-05-25T12:57:16;25.26;44.79
68804;SHT31;55787;52.678;13.314;2023-05-25T12:59:45;24.57;45.15
68804;SHT31;55787;52.678;13.314;2023-05-25T13:02:13;23.55;46.09
68804;SHT31;55787;52.678;13.314;2023-05-25T13:04:40;24.57;45.06
68804;SHT31;55787;52.678;13.314;2023-05-25T13:07:08;25.58;43.69
68804;SHT31;55787;52.678;13.314;2023-05-25T13:09:35;26.33;42.13
68804;SHT31;55787;52.678;13.314;2023-05-25T13:12:03;26.47;41.84
68804;SHT31;55787;52.678;13.314;2023-05-25T13:14:29;26.25;41.90
68804;SHT31;55787;52.678;13.314;2023-05-25T13:16:56;25.56;43.23
68804;SHT31;55787;52.678;13.314;2023-05-25T13:19:24;24.68;43.63
68804;SHT31;55787;52.678;13.314;2023-05-25T13:21:51;24.21;43.36
68804;SHT31;55787;52.678;13.314;2023-05-25T13:24:18;25.27;44.35
68804;SHT31;55787;52.678;13.314;2023-05-25T13:26:45;25.12;43.80
68804;SHT31;55787;52.678;13.314;2023-05-25T13:29:16;25.03;43.69
68804;SHT31;55787;52.678;13.314;2023-05-25T13:31:42;25.00;44.07
68804;SHT31;55787;52.678;13.314;2023-05-25T13:34:09;25.19;43.38
68804;SHT31;55787;52.678;13.314;2023-05-25T13:36:36;25.33;44.66
68804;SHT31;55787;52.678;13.314;2023-05-25T13:39:03;24.11;44.13
68804;SHT31;55787;52.678;13.314;2023-05-25T13:41:30;24.82;43.42
68804;SHT31;55787;52.678;13.314;2023-05-25T13:43:57;24.52;44.99
68804;SHT31;55787;52.678;13.314;2023-05-25T13:46:24;24.06;44.09
68804;SHT31;55787;52.678;13.314;2023-05-25T13:49:01;24.27;45.61
68804;SHT31;55787;52.678;13.314;2023-05-25T13:51:27;23.15;46.82
68804;SHT31;55787;52.678;13.314;2023-05-25T13:53:54;24.13;45.15
68804;SHT31;55787;52.678;13.314;2023-05-25T13:56:21;24.48;44.86
68804;SHT31;55787;52.678;13.314;2023-05-25T13:58:48;24.66;44.57
68804;SHT31;55787;52.678;13.314;2023-05-25T14:01:15;24.71;43.80
68804;SHT31;55787;52.678;13.314;2023-05-25T14:03:42;25.05;43.75
68804;SHT31;55787;52.678;13.314;2023-05-25T14:06:09;25.03;44.05
68804;SHT31;55787;52.678;13.314;2023-05-25T14:08:35;23.90;46.45
68804;SHT31;55787;52.678;13.314;2023-05-25T14:11:02;24.78;44.85
68804;SHT31;55787;52.678;13.314;2023-05-25T14:13:29;24.76;42.96
68804;SHT31;55787;52.678;13.314;2023-05-25T14:15:55;24.48;43.24
68804;SHT31;55787;52.678;13.314;2023-05-25T14:18:22;24.37;44.49
68804;SHT31;55787;52.678;13.314;2023-05-25T14:20:49;24.49;45.49
68804;SHT31;55787;52.678;13.314;2023-05-25T14:23:16;24.04;44.38
68804;SHT31;55787;52.678;13.314;2023-05-25T14:25:45;23.97;43.87
68804;SHT31;55787;52.678;13.314;2023-05-25T14:28:13;24.42;45.07
68804;SHT31;55787;52.678;13.314;2023-05-25T14:30:40;23.53;46.92
68804;SHT31;55787;52.678;13.314;2023-05-25T14:33:07;24.37;46.08
68804;SHT31;55787;52.678;13.314;2023-05-25T14:35:33;24.38;44.78
68804;SHT31;55787;52.678;13.314;2023-05-25T14:38:00;23.93;46.12
68804;SHT31;55787;52.678;13.314;2023-05-25T14:40:27;23.77;46.64
68804;SHT31;55787;52.678;13.314;2023-05-25T14:42:53;23.33;46.08
68804;SHT31;55787;52.678;13.314;2023-05-25T14:45:21;23.11;46.70
68804;SHT31;55787;52.678;13.314;2023-05-25T14:47:48;22.79;47.05
68804;SHT31;55787;52.678;13.314;2023-05-25T14:50:18;21.86;47.48
68804;SHT31;55787;52.678;13.314;2023-05-25T14:52:45;22.00;48.50
68804;SHT31;55787;52.678;13.314;2023-05-25T14:55:13;21.68;49.56
68804;SHT31;55787;52.678;13.314;2023-05-25T14:57:39;20.86;50.65
68804;SHT31;55787;52.678;13.314;2023-05-25T15:00:06;20.43;51.82
68804;SHT31;55787;52.678;13.314;2023-05-25T15:02:34;20.87;51.35
68804;SHT31;55787;52.678;13.314;2023-05-25T15:05:01;21.01;50.95
68804;SHT31;55787;52.678;13.314;2023-05-25T15:07:27;20.91;51.56
68804;SHT31;55787;52.678;13.314;2023-05-25T15:09:54;20.75;51.75
68804;SHT31;55787;52.678;13.314;2023-05-25T15:12:21;20.49;52.03
68804;SHT31;55787;52.678;13.314;2023-05-25T15:14:47;20.39;52.75
68804;SHT31;55787;52.678;13.314;2023-05-25T15:17:14;20.33;52.32
68804;SHT31;55787;52.678;13.314;2023-05-25T15:19:41;20.24;53.23
68804;SHT31;55787;52.678;13.314;2023-05-25T15:22:07;20.21;52.11
68804;SHT31;55787;52.678;13.314;2023-05-25T15:24:34;20.18;52.67
68804;SHT31;55787;52.678;13.314;2023-05-25T15:27:01;20.04;52.68
68804;SHT31;55787;52.678;13.314;2023-05-25T15:29:30;20.05;52.42
68804;SHT31;55787;52.678;13.314;2023-05-25T15:31:57;20.10;53.12
68804;SHT31;55787;52.678;13.314;2023-05-25T15:34:24;20.22;51.19
68804;SHT31;55787;52.678;13.314;2023-05-25T15:36:50;20.29;50.79
68804;SHT31;55787;52.678;13.314;2023-05-25T15:39:17;20.28;49.90
68804;SHT31;55787;52.678;13.314;2023-05-25T15:41:43;20.05;50.41
68804;SHT31;55787;52.678;13.314;2023-05-25T15:44:10;19.97;51.31
68804;SHT31;55787;52.678;13.314;2023-05-25T15:46:39;19.92;52.08
68804;SHT31;55787;52.678;13.314;2023-05-25T15:49:06;19.91;52.51